Home > Products > Valid Products > MTR

000
SAUS43 KMQT 010758
MTRP53
METAR KP53 010756Z AUTO 00000KT 11/08 A3003 RMK AO1 SLP173 T01060078





000
SAUS43 KMQT 010753
MTRP59
METAR KP59 010751Z AUTO 22009G16KT 11/08 A2999 RMK AO1 SLP156
T01060078





000
SAUS43 KMQT 010703 COR
MTRP53
METAR KP53 010656Z AUTO 00000KT 10/07 A3005 RMK AO1 SLP181 T01000072





000
SAUS43 KMQT 010654
MTRP59
METAR KP59 010651Z AUTO 22008KT 10/07 A3001 RMK AO1 SLP165 T01000072





000
SAUS43 KMQT 010603 COR
MTRP53
METAR KP53 010556Z AUTO 00000KT 10/07 A3006 RMK AO1 SLP183 T01000067
10100 20094 50000





000
SAUS43 KMQT 010554
MTRP59
METAR KP59 010551Z AUTO 22005KT 10/07 A3003 RMK AO1 SLP172 T01000072
10100 20056 58006





000
SAUS43 KMQT 010503 COR
MTRP53
METAR KP53 010456Z AUTO 19004KT 09/07 A3006 RMK AO1 SLP184 T00940067
401110083





000
SAUS43 KMQT 010454
MTRP59
METAR KP59 010451Z AUTO 23006KT 09/06 A3004 RMK AO1 SLP174 T00890061
401000056





000
SAUS43 KMQT 010357
MTRP53
METAR KP53 010356Z AUTO 00000KT 10/07 A3007 RMK AO1 SLP184 T01000067





000
SAUS43 KMQT 010354
MTRP59
METAR KP59 010351Z AUTO 20006KT 07/04 A3005 RMK AO1 SLP179 T00720039





000
SAUS43 KMQT 010257
MTRP53
METAR KP53 010256Z AUTO 00000KT 09/07 A3006 RMK AO1 SLP183 T00940067
56004





000
SAUS43 KMQT 010254
MTRP59
METAR KP59 010251Z AUTO 20004KT 07/03 A3005 RMK AO1 SLP179 T00720028
58006





000
SAUS43 KMQT 010157
MTRP53
METAR KP53 010156Z AUTO 00000KT 10/07 A3006 RMK AO1 SLP184 T01000067





000
SAUS43 KMQT 010154
MTRP59
METAR KP59 010151Z AUTO 00000KT 07/02 A3005 RMK AO1 SLP182 T00670017





000
SAUS43 KMQT 010103 COR
MTRP53
METAR KP53 010056Z AUTO 04006KT 10/06 A3006 RMK AO1 SLP183 T01000061





000
SAUS43 KMQT 010054
MTRP59
METAR KP59 010051Z AUTO 17004KT 07/03 A3006 RMK AO1 SLP184 T00670033





000
SAUS43 KMQT 302357
MTRP53
METAR KP53 302356Z AUTO 31003KT 09/07 A3007 RMK AO1 SLP187 T00940067
10111 20089 55001





000
SAUS43 KMQT 302354
MTRP59
METAR KP59 302351Z AUTO 18003KT 07/04 A3007 RMK AO1 SLP187 T00720039
10100 20072 58008





000
SAUS43 KMQT 302303 COR
MTRP53
METAR KP53 302256Z AUTO 01005KT 10/07 A3007 RMK AO1 SLP186 T01000067





000
SAUS43 KMQT 302254
MTRP59
METAR KP59 302251Z AUTO 12004KT 08/04 A3008 RMK AO1 SLP190 T00830039





000
SAUS43 KMQT 302203 COR
MTRP53
METAR KP53 302156Z AUTO 04009KT 11/07 A3007 RMK AO1 SLP186 T01110067





000
SAUS43 KMQT 302152
MTRP59
METAR KP59 302151Z AUTO 12006KT 09/04 A3008 RMK AO1 SLP191 T00890039





000
SAUS43 KMQT 302104 COR
MTRP53
METAR KP53 302056Z AUTO 03008KT 11/06 A3008 RMK AO1 SLP188 T01060061
56008





000
SAUS43 KMQT 302052
MTRP59
METAR KP59 302051Z AUTO 12006KT 09/04 A3009 RMK AO1 SLP194 T00940039
56012





000
SAUS43 KMQT 302004 COR
MTRP53
METAR KP53 301956Z AUTO 04009KT 11/07 A3008 RMK AO1 SLP188 T01110067





000
SAUS43 KMQT 301954
MTRP59
METAR KP59 301951Z AUTO 11006KT 09/04 A3010 RMK AO1 SLP196 T00940039





000
SAUS43 KMQT 301903 COR
MTRP53
METAR KP53 301856Z AUTO 36009KT 11/06 A3008 RMK AO1 SLP189 T01060061





000
SAUS43 KMQT 301854
MTRP59
METAR KP59 301851Z AUTO 09005KT 09/04 A3011 RMK AO1 SLP201 T00940039





000
SAUS43 KMQT 301803 COR
MTRP53
METAR KP53 301756Z AUTO 01010KT 10/06 A3010 RMK AO1 SLP197 T01000056
10106 20089 58001





000
SAUS43 KMQT 301754
MTRP59
METAR KP59 301751Z AUTO 08007KT 09/04 A3013 RMK AO1 SLP206 T00890039
10094 20072 58010





000
SAUS43 KMQT 301657
MTRP53
METAR KP53 301656Z AUTO 03011KT 10/06 A3010 RMK AO1 SLP197 T01000061





000
SAUS43 KMQT 301653
MTRP59
METAR KP59 301651Z AUTO VRB03KT 09/03 A3014 RMK AO1 SLP212 T00890033





000
SAUS43 KMQT 301603 COR
MTRP53
METAR KP53 301556Z AUTO 02013KT 10/07 A3011 RMK AO1 SLP199 T01000067





000
SAUS43 KMQT 301554
MTRP59
METAR KP59 301551Z AUTO 09004KT 09/02 A3015 RMK AO1 SLP215 T00890022





000
SAUS43 KMQT 301459
MTRP53
METAR KP53 301456Z AUTO 03014KT 09/06 A3010 RMK AO1 SLP199 T00940061
50002





000
SAUS43 KMQT 301454
MTRP59
METAR KP59 301451Z AUTO 08007KT 08/03 A3016 RMK AO1 SLP217 T00830028
50001





000
SAUS43 KMQT 301403 COR
MTRP53
METAR KP53 301356Z AUTO 02014KT 09/06 A3011 RMK AO1 SLP199 T00940056





000
SAUS43 KMQT 301353
MTRP59
METAR KP59 301351Z AUTO 10005KT 08/02 A3016 RMK AO1 SLP219 T00780022





000
SAUS43 KMQT 301303 COR
MTRP53
METAR KP53 301256Z AUTO 36013KT 09/06 A3010 RMK AO1 SLP198 T00890056





000
SAUS43 KMQT 301254
MTRP59
METAR KP59 301251Z AUTO VRB04KT 08/02 A3016 RMK AO1 SLP218 T00780022





000
SAUS43 KMQT 301204 COR
MTRP53
METAR KP53 301156Z AUTO 01012KT 09/06 A3010 RMK AO1 SLP196 70027
T00890056 10089 20083 50003





000
SAUS43 KMQT 301154
MTRP59
METAR KP59 301151Z AUTO 08007KT 07/03 A3015 RMK AO1 SLP217 T00720033
10072 20067 53000





000
SAUS43 KMQT 301103 COR
MTRP53
METAR KP53 301056Z AUTO 01011KT 09/06 A3010 RMK AO1 SLP199 T00890056





000
SAUS43 KMQT 301054
MTRP59
METAR KP59 301051Z AUTO VRB05KT 07/03 A3015 RMK AO1 SLP215 T00670028
$





000
SAUS43 KMQT 301003 COR
MTRP53
METAR KP53 300956Z AUTO 02012KT 09/06 A3009 RMK AO1 SLP194 T00890056





000
SAUS43 KMQT 300954
MTRP59
METAR KP59 300951Z AUTO 07/03 A3015 RMK AO1 SLP215 T00670028 $





000
SAUS43 KMQT 300903 COR
MTRP53
METAR KP53 300856Z AUTO 02015KT 09/06 A3009 RMK AO1 SLP193 T00890056
56005





000
SAUS43 KMQT 300854
MTRP59
METAR KP59 300851Z AUTO 09006KT 07/03 A3015 RMK AO1 SLP216 T00720028
58003 $





000
SAUS43 KMQT 300757
MTRP53
METAR KP53 300756Z AUTO 01013G21KT 08/05 A3009 RMK AO1 SLP194
T00830050





000
SAUS43 KMQT 300754
MTRP59
METAR KP59 300751Z AUTO VRB04KT 07/02 A3016 RMK AO1 SLP219 T00720022
$





000
SAUS43 KMQT 300704 COR
MTRP53
METAR KP53 300656Z AUTO 04019G24KT 09/06 A3010 RMK AO1 SLP197
T00890056





000
SAUS43 KMQT 300654
MTRP59
METAR KP59 300651Z AUTO 13005KT 07/02 A3016 RMK AO1 SLP220 T00670017
$





000
SAUS43 KMQT 300557
MTRP53
METAR KP53 300556Z AUTO 02019G25KT 08/06 A3010 RMK AO1 SLP198 P0001
60002 T00830056 10089 20083 56002





000
SAUS43 KMQT 300554
MTRP59
METAR KP59 300551Z AUTO VRB04KT 07/03 A3016 RMK AO1 SLP219 T00670028
10072 20067 58009 $





000
SAUS43 KMQT 300459
MTRP53
METAR KP53 300456Z AUTO 02019KT 08/06 A3010 RMK AO1 PK WND
01028/0430 SLP199 T00830061 401780083





000
SAUS43 KMQT 300454
MTRP59
METAR KP59 300451Z AUTO 08012G17KT 07/03 A3018 RMK AO1 SLP225
T00720028 400890061 $





000
SAUS43 KMQT 300404 COR
MTRP53
METAR KP53 300356Z AUTO 02020KT 09/06 A3010 RMK AO1 PK WND
02026/0323 SLP198 T00890061





000
SAUS43 KMQT 300356
MTRP59
METAR KP59 300351Z AUTO 08016G21KT 07/03 A3018 RMK AO1 SLP226
T00720033 $





000
SAUS43 KMQT 300257
MTRP53
METAR KP53 300256Z AUTO 02019KT 08/06 A3011 RMK AO1 PK WND
02028/0208 SLP200 60001 T00830056 50003





000
SAUS43 KMQT 300254
MTRP59
METAR KP59 300251Z AUTO 08015G21KT 07/03 A3019 RMK AO1 SLP229
T00670033 50004 $





000
SAUS43 KMQT 300157
MTRP53
METAR KP53 300156Z AUTO 02018KT 09/06 A3011 RMK AO1 PK WND
01028/0106 SLP200 T00890056





000
SAUS43 KMQT 300154
MTRP59
METAR KP59 300151Z AUTO 07014KT 07/03 A3020 RMK AO1 SLP231 T00670033
$





000
SAUS43 KMQT 300103 COR
MTRP53
METAR KP53 300056Z AUTO 02021KT 09/06 A3010 RMK AO1 PK WND
02027/0047 SLP196 P0001 T00890056





000
SAUS43 KMQT 300053
MTRP59
METAR KP59 300051Z AUTO 08016KT 07/03 A3019 RMK AO1 SLP229 T00670033
$





000
SAUS43 KMQT 292359
MTRP53
METAR KP53 292356Z AUTO 02020G25KT 08/06 A3010 RMK AO1 SLP195 60001
T00830061 10089 20083 51007





000
SAUS43 KMQT 292353
MTRP59
METAR KP59 292351Z AUTO 08016G23KT 07/03 A3018 RMK AO1 SLP225
T00670033 10067 20061 50002 $





000
SAUS43 KMQT 292303 COR
MTRP53
METAR KP53 292256Z AUTO 35014KT 08/06 A3009 RMK AO1 SLP193 T00830056





000
SAUS43 KMQT 292254
MTRP59
METAR KP59 292251Z AUTO 07016KT 07/04 A3019 RMK AO1 SLP227 T00670039
$





000
SAUS43 KMQT 292203 COR
MTRP53
METAR KP53 292156Z AUTO 35018G25KT 08/06 A3009 RMK AO1 SLP193 P0001
T00830061





000
SAUS43 KMQT 292152
MTRP59
METAR KP59 292151Z AUTO 06018KT 07/04 A3018 RMK AO1 PK WND
06026/2109 SLP224 T00670039 $





000
SAUS43 KMQT 292057
MTRP53
METAR KP53 292056Z AUTO 36019KT 08/06 A3008 RMK AO1 PK WND
01027/2016 SLP188 T00830061 51002





000
SAUS43 KMQT 292054
MTRP59
METAR KP59 292051Z AUTO 07017G23KT 07/04 A3017 RMK AO1 SLP223
T00670039 $





000
SAUS43 KMQT 292003 COR
MTRP53
METAR KP53 291956Z AUTO 36020G27KT 09/07 A3008 RMK AO1 PK WND
01028/1943 SLP188 T00890067





000
SAUS43 KMQT 291953
MTRP59
METAR KP59 291951Z AUTO 07019KT 07/04 A3017 RMK AO1 PK WND
08026/1914 SLP222 T00670039





000
SAUS43 KMQT 291859
MTRP53
METAR KP53 291856Z AUTO 36021KT 09/07 A3007 RMK AO1 PK WND
01029/1820 SLP187 T00890067





000
SAUS43 KMQT 291854
MTRP59
METAR KP59 291851Z AUTO 06019G24KT 07/04 A3018 RMK AO1 PK WND
06028/1832 SLP224 T00670039





000
SAUS43 KMQT 291759
MTRP53
METAR KP53 291756Z AUTO 36021KT 09/07 A3007 RMK AO1 PK WND
01028/1733 SLP185 60024 T00890067 10106 20089 50005





000
SAUS43 KMQT 291753
MTRP59
METAR KP59 291751Z AUTO 07020KT 06/04 A3018 RMK AO1 PK WND
08028/1708 SLP224 T00610039 10067 20061 53004





000
SAUS43 KMQT 291704 COR
MTRP53
METAR KP53 291656Z AUTO 36020G25KT 09/07 A3007 RMK AO1 PK WND
01026/1615 SLP186 T00890072





000
SAUS43 KMQT 291654
MTRP59
METAR KP59 291651Z AUTO 07020G27KT 07/04 A3017 RMK AO1 PK WND
06027/1614 SLP221 T00670044





000
SAUS43 KMQT 291604 COR
MTRP53
METAR KP53 291556Z AUTO 35016KT 09/07 A3007 RMK AO1 SLP184 T00890072





000
SAUS43 KMQT 291552
MTRP59
METAR KP59 291551Z AUTO 07021G27KT 07/04 A3017 RMK AO1 PK WND
05029/1513 SLP220 T00670039





000
SAUS43 KMQT 291504 COR
MTRP53
METAR KP53 291456Z AUTO 36020G26KT 09/07 A3005 RMK AO1 PK WND
01026/1449 SLP179 P0007 60024 T00940072 51011





000
SAUS43 KMQT 291454
MTRP59
METAR KP59 291451Z AUTO 07020G28KT 07/04 A3016 RMK AO1 PK WND
06029/1436 SLP218 T00670044 51013





000
SAUS43 KMQT 291357
MTRP53
METAR KP53 291356Z AUTO 35014KT 09/08 A3005 RMK AO1 SLP178 P0009
T00940078





000
SAUS43 KMQT 291354
MTRP59
METAR KP59 291351Z AUTO 07020KT 07/04 A3015 RMK AO1 PK WND
08027/1340 SLP214 T00670044





000
SAUS43 KMQT 291303 COR
MTRP53
METAR KP53 291256Z AUTO 35012KT 10/08 A3004 RMK AO1 SLP171 P0008
T01000083





000
SAUS43 KMQT 291254
MTRP59
METAR KP59 291251Z AUTO 08021KT 06/05 A3014 RMK AO1 PK WND
06027/1201 SLP210 T00610050





000
SAUS43 KMQT 291203 COR
MTRP53
METAR KP53 291156Z AUTO 35012KT 11/09 A3002 RMK AO1 SLP168 70018
T01060089 10150 20106 53007





000
SAUS43 KMQT 291153
MTRP59
METAR KP59 291151Z AUTO 07020KT 07/05 A3012 RMK AO1 PK WND
08027/1122 SLP204 60023 70023 T00670050 10083 20067 53008





000
SAUS43 KMQT 291103 COR
MTRP53
METAR KP53 291056Z AUTO 36012KT 11/09 A3000 RMK AO1 SLP160 T01110094





000
SAUS43 KMQT 291054
MTRP59
METAR KP59 291051Z AUTO 07018G23KT 07/06 A3012 RMK AO1 PK WND
08026/1006 SLP202 T00670056





000
SAUS43 KMQT 290959
MTRP53
METAR KP53 290956Z AUTO 35008KT 11/10 A3000 RMK AO1 SLP161 T01110100





000
SAUS43 KMQT 290953
MTRP59
METAR KP59 290951Z AUTO 08019G24KT 07/06 A3010 RMK AO1 PK WND
08026/0926 SLP196 P0006 T00720056





000
SAUS43 KMQT 290904 COR
MTRP53
METAR KP53 290856Z AUTO 33007KT 12/10 A3000 RMK AO1 SLP159 T01170100
51006





000
SAUS43 KMQT 290854
MTRP59
METAR KP59 290851Z AUTO 08021G26KT 07/06 A3010 RMK AO1 PK WND
08026/0851 SLP194 P0012 60017 T00720061 53007





000
SAUS43 KMQT 290804 COR
MTRP53
METAR KP53 290756Z AUTO 34005KT 12/11 A2999 RMK AO1 SLP157 T01220106





000
SAUS43 KMQT 290754
MTRP59
METAR KP59 290751Z AUTO 09008G19KT 08/07 A3009 RMK AO1 PK WND
08029/0709 SLP190 P0005 T00780067





000
SAUS43 KMQT 290703 COR
MTRP53
METAR KP53 290656Z AUTO VRB04KT 13/12 A2999 RMK AO1 SLP156 T01330117





000
SAUS43 KMQT 290654
MTRP59
METAR KP59 290651Z AUTO 09020G29KT 08/07 A3007 RMK AO1 PK WND
08029/0650 SLP184 T00780067





000
SAUS43 KMQT 290603 COR
MTRP53
METAR KP53 290556Z AUTO 19005KT 14/13 A2998 RMK AO1 SLP152 60018
T01440133 10217 20144 56004





000
SAUS43 KMQT 290553
MTRP59
METAR KP59 290551Z AUTO 08020G27KT 08/07 A3008 RMK AO1 PK WND
08027/0543 SLP185 T00830072 10117 20083 53003





000
SAUS43 KMQT 290458
MTRP53
METAR KP53 290456Z AUTO 00000KT 17/14 A2998 RMK AO1 SLP151 T01670144
402780150





000
SAUS43 KMQT 290454
MTRP59
METAR KP59 290451Z AUTO 08017G24KT 09/07 A3008 RMK AO1 SLP183
T00890072 402440089





000
SAUS43 KMQT 290404 COR
MTRP53
METAR KP53 290356Z AUTO 00000KT 17/15 A2998 RMK AO1 SLP151 T01720150





000
SAUS43 KMQT 290354
MTRP59
METAR KP59 290351Z AUTO 08015G24KT 09/08 A3007 RMK AO1 SLP181
T00940083





000
SAUS43 KMQT 290303 COR
MTRP53
METAR KP53 290256Z AUTO VRB03KT 19/16 A2999 RMK AO1 SLP155 P0003
60018 T01940156 58006





000
SAUS43 KMQT 290254
MTRP59
METAR KP59 290251Z AUTO 05013KT 10/08 A3007 RMK AO1 SLP180 T01000083
52006





000
SAUS43 KMQT 290203 COR
MTRP53
METAR KP53 290156Z AUTO 21008KT 19/17 A3001 RMK AO1 SLP162 P0015
T01940167





000
SAUS43 KMQT 290154
MTRP59
METAR KP59 290151Z AUTO 05011KT 10/08 A3006 RMK AO1 SLP179 T01000083





000
SAUS43 KMQT 290057
MTRP53
METAR KP53 290056Z AUTO 20006KT 22/14 A3000 RMK AO1 SLP160 T02170144





000
SAUS43 KMQT 290053
MTRP59
METAR KP59 290051Z AUTO 08008KT 11/08 A3006 RMK AO1 SLP178 T01060083





000
SAUS43 KMQT 290003 COR
MTRP53
METAR KP53 282356Z AUTO 20003KT 21/16 A3001 RMK AO1 SLP162 T02060156
10244 20206 56009





000
SAUS43 KMQT 282354
MTRP59
METAR KP59 282351Z AUTO 09006KT 12/09 A3005 RMK AO1 SLP175 T01170094
10206 20117 51000





000
SAUS43 KMQT 282258
MTRP53
METAR KP53 282256Z AUTO 20003KT 22/14 A3002 RMK AO1 SLP164 T02170144





000
SAUS43 KMQT 282254
MTRP59
METAR KP59 282251Z AUTO VRB03KT 12/10 A3005 RMK AO1 SLP175 T01170100





000
SAUS43 KMQT 282203 COR
MTRP53
METAR KP53 282156Z AUTO 00000KT 22/14 A3002 RMK AO1 SLP167 T02220139





000
SAUS43 KMQT 282153
MTRP59
METAR KP59 282151Z AUTO 04004KT 12/11 A3006 RMK AO1 SLP177 T01170106





000
SAUS43 KMQT 282058
MTRP53
METAR KP53 282056Z AUTO 00000KT 22/14 A3004 RMK AO1 SLP171 T02220139
58015





000
SAUS43 KMQT 282053
MTRP59
METAR KP59 282051Z AUTO 04004KT 14/12 A3005 RMK AO1 SLP174 T01440117
55001





000
SAUS43 KMQT 281958
MTRP53
METAR KP53 281956Z AUTO 32004KT 22/14 A3005 RMK AO1 SLP176 T02170139





000
SAUS43 KMQT 281954
MTRP59
METAR KP59 281951Z AUTO 05008KT 17/13 A3005 RMK AO1 SLP171 T01720128





000
SAUS43 KMQT 281858
MTRP53
METAR KP53 281856Z AUTO 35005KT 21/14 A3007 RMK AO1 SLP183 T02060139





000
SAUS43 KMQT 281854
MTRP59
METAR KP59 281851Z AUTO 35015KT 17/13 A3005 RMK AO1 SLP174 T01720128





000
SAUS43 KMQT 281759
MTRP53
METAR KP53 281756Z AUTO 03005KT 22/15 A3008 RMK AO1 SLP186 T02220150
10278 20156 56011





000
SAUS43 KMQT 281754
MTRP59
METAR KP59 281751Z AUTO 35010KT 19/13 A3006 RMK AO1 SLP173 T01890133
10244 20178 58006





000
SAUS43 KMQT 281703 COR
MTRP53
METAR KP53 281656Z AUTO 04006KT 24/15 A3009 RMK AO1 SLP189 T02440150





000
SAUS43 KMQT 281653
MTRP59
METAR KP59 281651Z AUTO 35009KT 19/13 A3007 RMK AO1 SLP176 T01940133





000
SAUS43 KMQT 281603 COR
MTRP53
METAR KP53 281556Z AUTO 21004KT 26/16 A3010 RMK AO1 SLP191 T02610156





000
SAUS43 KMQT 281552
MTRP59
METAR KP59 281551Z AUTO 35007KT 20/14 A3007 RMK AO1 SLP177 T02000139





000
SAUS43 KMQT 281457
MTRP53
METAR KP53 281456Z AUTO 17005KT 23/16 A3012 RMK AO1 SLP196 T02330156
58006





000
SAUS43 KMQT 281454
MTRP59
METAR KP59 281451Z AUTO VRB05KT 23/15 A3007 RMK AO1 SLP176 T02330150
56005





000
SAUS43 KMQT 281404 COR
MTRP53
METAR KP53 281356Z AUTO 19006KT 19/14 A3013 RMK AO1 SLP202 T01940139





000
SAUS43 KMQT 281354
MTRP59
METAR KP59 281351Z AUTO 00000KT 21/15 A3008 RMK AO1 SLP179 T02110150





000
SAUS43 KMQT 281304 COR
MTRP53
METAR KP53 281256Z AUTO 19008KT 17/13 A3013 RMK AO1 SLP204 T01720133





000
SAUS43 KMQT 281252
MTRP59
METAR KP59 281251Z AUTO 00000KT 19/14 A3008 RMK AO1 SLP180 T01940144





000
SAUS43 KMQT 281159
MTRP53
METAR KP53 281156Z AUTO 18007KT 16/13 A3013 RMK AO1 SLP204 T01560128
10172 20150 58000





000
SAUS43 KMQT 281154
MTRP59
METAR KP59 281151Z AUTO 00000KT 18/14 A3009 RMK AO1 SLP183 T01780144
10211 20172 57003





000
SAUS43 KMQT 281103 COR
MTRP53
METAR KP53 281056Z AUTO 15006KT 16/13 A3013 RMK AO1 SLP204 T01560128





000
SAUS43 KMQT 281054
MTRP59
METAR KP59 281051Z AUTO 25004KT 19/14 A3009 RMK AO1 SLP182 T01940144





000
SAUS43 KMQT 281003 COR
MTRP53
METAR KP53 280956Z AUTO 21005KT 17/13 A3014 RMK AO1 SLP204 T01670128





000
SAUS43 KMQT 280954
MTRP59
METAR KP59 280951Z AUTO VRB04KT 19/14 A3009 RMK AO1 SLP183 T01940144





000
SAUS43 KMQT 280904 COR
MTRP53
METAR KP53 280856Z AUTO 21007KT 17/13 A3014 RMK AO1 SLP203 T01670133
58003





000
SAUS43 KMQT 280852
MTRP59
METAR KP59 280851Z AUTO 00000KT 19/14 A3010 RMK AO1 SLP184 T01890144
51002





    US Dept of Commerce
    National Oceanic and Atmospheric Administration
    National Weather Service
    1325 East West Highway
    Silver Spring, MD 20910
    Page Author: NWS Internet Services Team
Disclaimer
Information Quality
Credits
Glossary
Privacy Policy
Freedom of Information Act (FOIA)
About Us
Career Opportunities